Kahuku, HI

3:15 AM HST on February 07, 2016 (GMT -1000)
NEPP | | Change Station
CLOSE
Current Station
Personal Weather Station
Location: Kahuku, HI
Elevation: 4 ft
Nearby Weather Stations

Elev 4 ft 21.69 °N, 157.95 °W | Updated 19 days ago

Partly Cloudy
Partly Cloudy
63 °F
Feels Like 63 °F
N
12
Wind Variable Wind from North
Gusts mph

Today
High -- | Low -- °F
--% Chance of Precip.
Yesterday
High -- | Low -- °F
Precip. -- in
Pressure 29.98 in
Visibility 10.0 miles
Clouds Few 1800 ft
Mostly Cloudy 2900 ft
Dew Point 58 °F
Humidity 83%
Rainfall in
Snow Depth Not available.
7:07 AM 6:24 PM
Waning Crescent, 2% visible
SPECI PHHI 071303Z AUTO 35005KT 10SM -DZ FEW018 BKN029 18/16 A2998 RMK AO2 DZE1259DZB03 CIG 027V033 $
Pressure 29.98 in
Visibility 10.0 miles
Clouds Few 1800 ft
Mostly Cloudy 2900 ft
Dew Point 58 °F
Humidity 83%
Rainfall in
Snow Depth Not available.
7:07 AM 6:24 PM
Waning Crescent, 2% visible
SPECI PHHI 071303Z AUTO 35005KT 10SM -DZ FEW018 BKN029 18/16 A2998 RMK AO2 DZE1259DZB03 CIG 027V033 $

10-Day Weather Forecast

Almanac

Astronomy

Feb. 07, 2016 Rise Set
Actual Time
Civil Twilight
Nautical Twilight
Astronomical Twilight
Moon
Length of Visible Light
Length of Day
Tomorrow will be .
, % of the Moon is Illuminated

Today's Extremes

State Highs State Lows

Community

WunderPhotos

Upload Photos

1,891,190 photos uploaded!

WunderBlog® & News

Nearby

Air Quality

  Air Quality AQ Index Pollutant
Not available.

Snow Depth

Station Depth Elevation

Earthquake Activity

City Distance Mag. Time & Date
Minimum magnitude displayed is 2.5.

Coastal Water Temperatures

Place Temperature

Stations

Nearby Weather Stations

Station Location Temp. Windchill Dew Point Humidity Wind Precip. Elev Updated Type
                   

Watches & Warnings

There are currently no watches in effect.